Time;durP1;ratioP1;P1;durP2;ratioP2;P2;SDS_P1;SDS_P2;PMS_P1;PMS_P2;Temp;Humidity;BMP_temperature;BMP_pressure;BME280_temperature;BME280_humidity;BME280_pressure;Samples;Min_cycle;Max_cycle;Signal;HPM_P1;HPM_P2
2023/08/26 00:00:07;;;;;;;15.85;14.25;;;19.10;99.90;;;;;;5028720;28;20081;-84
2023/08/26 00:02:33;;;;;;;14.90;13.30;;;19.00;99.90;;;;;;5021705;28;20029;-84
2023/08/26 00:04:59;;;;;;;16.08;13.98;;;19.00;99.90;;;;;;5016432;28;20017;-84
2023/08/26 00:07:24;;;;;;;15.40;13.80;;;19.00;99.90;;;;;;5023299;28;20028;-84
2023/08/26 00:09:50;;;;;;;16.75;14.20;;;18.90;99.90;;;;;;5016067;28;20021;-84
2023/08/26 00:12:15;;;;;;;14.95;12.73;;;18.90;99.90;;;;;;5023413;28;20022;-84
2023/08/26 00:14:41;;;;;;;15.73;14.05;;;18.80;99.90;;;;;;5017347;28;20071;-84
2023/08/26 00:17:06;;;;;;;15.23;13.63;;;18.90;99.90;;;;;;5022901;28;20037;-84
2023/08/26 00:19:32;;;;;;;17.70;14.45;;;18.80;99.90;;;;;;5022529;28;20018;-84
2023/08/26 00:21:58;;;;;;;16.50;14.75;;;18.80;99.90;;;;;;5024516;28;20021;-84
2023/08/26 00:24:24;;;;;;;15.55;13.85;;;18.80;99.90;;;;;;5022671;28;20669;-85
2023/08/26 00:26:50;;;;;;;18.30;14.65;;;18.80;99.90;;;;;;5022053;28;20116;-82
2023/08/26 00:29:15;;;;;;;17.25;14.73;;;18.70;99.90;;;;;;5023574;28;20022;-84
2023/08/26 00:31:41;;;;;;;14.55;13.00;;;18.70;99.90;;;;;;5013620;28;20049;-83
2023/08/26 00:34:06;;;;;;;17.08;12.85;;;18.70;99.90;;;;;;5016200;28;20026;-84
2023/08/26 00:36:32;;;;;;;20.20;16.75;;;18.80;99.90;;;;;;5017427;28;20026;-84
2023/08/26 00:38:58;;;;;;;20.05;16.25;;;18.70;99.90;;;;;;5028733;28;20029;-84
2023/08/26 00:41:23;;;;;;;17.92;15.43;;;18.70;99.90;;;;;;5025190;28;20029;-83
2023/08/26 00:43:49;;;;;;;19.80;16.52;;;18.70;99.90;;;;;;5018304;28;20044;-84
2023/08/26 00:46:14;;;;;;;16.60;14.80;;;18.70;99.90;;;;;;5022387;28;20022;-84
2023/08/26 00:48:41;;;;;;;20.35;17.35;;;18.70;99.90;;;;;;5022502;28;20032;-83
2023/08/26 00:51:06;;;;;;;25.10;20.48;;;18.70;99.90;;;;;;5022713;28;20036;-85
2023/08/26 00:53:32;;;;;;;24.75;18.77;;;18.70;99.90;;;;;;5027540;28;20108;-85
2023/08/26 00:55:59;;;;;;;24.52;19.48;;;18.80;99.90;;;;;;5003638;28;20022;-83
2023/08/26 00:58:26;;;;;;;26.13;20.88;;;18.70;99.90;;;;;;5012577;28;20149;-85
2023/08/26 01:00:52;;;;;;;25.83;21.55;;;18.70;99.90;;;;;;5008921;28;20064;-85
2023/08/26 01:03:18;;;;;;;26.83;21.58;;;18.70;99.90;;;;;;5017268;28;20033;-84
2023/08/26 01:05:43;;;;;;;26.02;20.27;;;18.80;99.90;;;;;;5022226;28;20045;-84
2023/08/26 01:08:10;;;;;;;25.10;20.70;;;18.80;99.90;;;;;;5019061;28;20025;-85
2023/08/26 01:11:04;;;;;;;26.50;20.05;;;18.70;99.90;;;;;;5021049;28;20022;-84
2023/08/26 01:13:34;;;;;;;24.00;19.83;;;18.70;99.90;;;;;;5016011;28;20021;-86
2023/08/26 01:16:02;;;;;;;26.27;21.33;;;18.80;99.90;;;;;;5022303;28;20029;-84
2023/08/26 01:18:28;;;;;;;28.67;22.15;;;18.80;99.90;;;;;;5020068;28;20626;-83
2023/08/26 01:20:55;;;;;;;26.08;21.52;;;18.70;99.90;;;;;;5021534;28;20049;-84
2023/08/26 01:23:36;;;;;;;27.38;20.90;;;18.70;99.90;;;;;;5015072;28;20029;-84
2023/08/26 01:26:02;;;;;;;27.67;21.83;;;18.80;99.90;;;;;;5011679;28;20392;-85
2023/08/26 01:28:27;;;;;;;25.65;20.45;;;18.70;99.90;;;;;;5015039;28;20107;-83
2023/08/26 01:30:55;;;;;;;30.08;23.50;;;18.70;99.90;;;;;;5021434;28;20384;-85
2023/08/26 01:33:24;;;;;;;29.33;23.40;;;18.70;99.90;;;;;;5021446;28;20025;-85
2023/08/26 01:35:58;;;;;;;27.23;22.20;;;18.70;99.90;;;;;;5004068;28;20732;-85
2023/08/26 01:38:25;;;;;;;30.48;21.98;;;18.70;99.90;;;;;;5022079;28;21448;-85
2023/08/26 01:40:56;;;;;;;29.88;22.95;;;18.70;99.90;;;;;;5019030;28;20115;-85
2023/08/26 01:43:23;;;;;;;28.13;22.58;;;18.70;99.90;;;;;;5019284;28;20027;-84
2023/08/26 01:45:50;;;;;;;30.27;22.27;;;18.60;99.90;;;;;;5021269;28;20563;-84
2023/08/26 01:48:16;;;;;;;29.65;22.67;;;18.60;99.90;;;;;;5020925;28;20551;-84
2023/08/26 01:50:42;;;;;;;25.88;20.73;;;18.60;99.90;;;;;;5020133;28;20038;-85
2023/08/26 01:53:08;;;;;;;28.17;20.83;;;18.60;99.90;;;;;;5022959;28;20029;-84
2023/08/26 01:55:34;;;;;;;25.50;21.33;;;18.60;99.90;;;;;;5019068;28;20079;-84
2023/08/26 01:58:00;;;;;;;26.50;21.13;;;18.60;99.90;;;;;;5021445;28;20041;-85
2023/08/26 02:00:25;;;;;;;30.50;21.90;;;18.60;99.90;;;;;;5020357;28;20041;-86
2023/08/26 02:02:51;;;;;;;31.85;22.73;;;18.60;99.90;;;;;;5021155;28;20021;-85
2023/08/26 02:05:16;;;;;;;29.15;21.63;;;18.60;99.90;;;;;;5021810;28;20037;-85
2023/08/26 02:07:42;;;;;;;30.92;22.52;;;18.60;99.90;;;;;;5018967;28;20132;-86
2023/08/26 02:10:08;;;;;;;30.58;21.85;;;18.60;99.90;;;;;;5011734;28;20038;-85
2023/08/26 02:12:34;;;;;;;29.48;21.17;;;18.60;99.90;;;;;;5037137;28;20049;-85
2023/08/26 02:15:01;;;;;;;25.35;21.35;;;18.60;99.90;;;;;;5014099;28;20324;-84
2023/08/26 02:17:27;;;;;;;33.85;24.38;;;18.60;99.90;;;;;;5022576;28;20029;-85
2023/08/26 02:19:52;;;;;;;31.90;24.58;;;18.60;99.90;;;;;;5022406;28;20472;-86
2023/08/26 02:22:18;;;;;;;34.78;25.33;;;18.60;99.90;;;;;;5013259;28;20097;-84
2023/08/26 02:24:44;;;;;;;30.90;23.55;;;18.60;99.90;;;;;;5019097;28;20034;-85
2023/08/26 02:27:09;;;;;;;29.02;22.95;;;18.60;99.90;;;;;;5019625;28;20029;-85
2023/08/26 02:29:35;;;;;;;29.98;22.55;;;18.60;99.90;;;;;;5013558;28;20065;-86
2023/08/26 02:32:00;;;;;;;31.10;23.27;;;18.60;99.90;;;;;;5020344;28;20052;-84
2023/08/26 02:34:26;;;;;;;31.40;21.13;;;18.60;99.90;;;;;;5025971;28;20022;-85
2023/08/26 02:36:52;;;;;;;25.55;20.50;;;18.60;99.90;;;;;;5025859;28;20445;-85
2023/08/26 02:39:18;;;;;;;30.45;22.83;;;18.60;99.90;;;;;;5028578;28;20116;-86
2023/08/26 02:41:43;;;;;;;28.42;21.00;;;18.60;99.90;;;;;;5027541;28;20128;-85
2023/08/26 02:44:09;;;;;;;28.42;21.15;;;18.50;99.90;;;;;;5015098;28;20030;-86
2023/08/26 02:46:34;;;;;;;30.40;20.75;;;18.50;99.90;;;;;;5024642;28;20053;-85
2023/08/26 02:49:01;;;;;;;32.35;22.38;;;18.50;99.90;;;;;;5021270;28;20018;-84
2023/08/26 02:51:26;;;;;;;26.10;21.10;;;18.60;99.90;;;;;;5028921;28;20120;-86
2023/08/26 02:53:52;;;;;;;31.27;23.50;;;18.50;99.90;;;;;;5023435;28;20071;-86
2023/08/26 02:56:18;;;;;;;27.77;21.25;;;18.60;99.90;;;;;;5021417;28;20037;-85
2023/08/26 02:58:43;;;;;;;31.55;22.75;;;18.50;99.90;;;;;;5027793;28;21327;-85
2023/08/26 03:01:09;;;;;;;29.58;20.58;;;18.50;99.90;;;;;;5014051;28;20042;-85
2023/08/26 03:03:34;;;;;;;28.92;21.58;;;18.50;99.90;;;;;;5022449;28;20025;-86
2023/08/26 03:06:00;;;;;;;27.48;21.08;;;18.50;99.90;;;;;;5020099;28;20374;-85
2023/08/26 03:08:26;;;;;;;30.25;22.55;;;18.50;99.90;;;;;;5029101;28;20037;-86
2023/08/26 03:11:00;;;;;;;25.55;19.90;;;18.50;99.90;;;;;;5025830;28;20014;-86
2023/08/26 03:13:25;;;;;;;26.48;20.83;;;18.50;99.90;;;;;;5031960;28;20029;-85
2023/08/26 03:15:51;;;;;;;29.00;21.30;;;18.50;99.90;;;;;;5025646;28;20411;-85
2023/08/26 03:18:16;;;;;;;28.60;21.73;;;18.50;99.90;;;;;;5018791;28;20085;-85
2023/08/26 03:20:42;;;;;;;26.80;19.05;;;18.50;99.90;;;;;;5021440;28;20116;-85
2023/08/26 03:23:07;;;;;;;25.45;19.92;;;18.50;99.90;;;;;;5020287;28;20033;-86
2023/08/26 03:25:37;;;;;;;27.30;21.55;;;18.50;99.90;;;;;;5027488;28;20026;-84
2023/08/26 03:28:03;;;;;;;29.15;21.33;;;18.50;99.90;;;;;;5021492;28;20045;-84
2023/08/26 03:30:29;;;;;;;26.50;19.50;;;18.50;99.90;;;;;;5013618;28;20088;-86
2023/08/26 03:32:55;;;;;;;24.95;18.67;;;18.60;99.90;;;;;;5020978;28;20085;-86
2023/08/26 03:35:20;;;;;;;27.90;21.10;;;18.50;99.90;;;;;;5022280;28;20030;-86
2023/08/26 03:37:46;;;;;;;21.58;17.77;;;18.50;99.90;;;;;;5028379;28;20029;-85
2023/08/26 03:40:11;;;;;;;28.80;21.42;;;18.50;99.90;;;;;;5019496;28;20032;-86
2023/08/26 03:42:38;;;;;;;25.38;19.17;;;18.50;99.90;;;;;;5022018;28;20026;-86
2023/08/26 03:45:04;;;;;;;28.30;19.85;;;18.50;99.90;;;;;;5020178;28;20049;-86
2023/08/26 03:47:31;;;;;;;23.92;19.30;;;18.50;99.90;;;;;;5021477;28;20026;-87
2023/08/26 03:49:56;;;;;;;29.95;20.55;;;18.50;99.90;;;;;;5026672;28;20029;-86
2023/08/26 03:52:22;;;;;;;24.25;17.38;;;18.40;99.90;;;;;;5021393;28;20023;-86
2023/08/26 03:54:47;;;;;;;24.23;17.75;;;18.40;99.90;;;;;;5027928;28;20639;-86
2023/08/26 03:57:13;;;;;;;24.90;18.15;;;18.50;99.90;;;;;;5022962;28;20022;-85
2023/08/26 03:59:38;;;;;;;26.27;19.20;;;18.40;99.90;;;;;;5023394;28;20500;-86
2023/08/26 04:02:04;;;;;;;24.55;19.58;;;18.50;99.90;;;;;;5015930;28;20748;-86
2023/08/26 04:04:31;;;;;;;26.88;19.70;;;18.40;99.90;;;;;;5019692;28;20481;-87
2023/08/26 04:06:57;;;;;;;22.55;17.48;;;18.40;99.90;;;;;;5025539;28;20030;-85
2023/08/26 04:09:23;;;;;;;27.58;20.05;;;18.40;99.90;;;;;;5019511;28;20066;-86
2023/08/26 04:11:49;;;;;;;27.17;20.58;;;18.40;99.90;;;;;;5021083;28;20021;-86
2023/08/26 04:14:15;;;;;;;27.23;20.00;;;18.40;99.90;;;;;;5020385;28;20021;-86
2023/08/26 04:16:41;;;;;;;29.92;21.40;;;18.40;99.90;;;;;;5021607;28;20030;-86
2023/08/26 04:19:07;;;;;;;31.30;21.73;;;18.40;99.90;;;;;;5021412;28;20213;-86
2023/08/26 04:21:32;;;;;;;29.95;21.40;;;18.40;99.90;;;;;;5019089;28;20026;-89
2023/08/26 04:23:58;;;;;;;31.90;22.50;;;18.50;99.90;;;;;;5019507;28;20025;-85
2023/08/26 04:26:24;;;;;;;31.55;22.42;;;18.50;99.90;;;;;;5017488;28;20033;-85
2023/08/26 04:28:49;;;;;;;31.35;23.25;;;18.50;99.90;;;;;;5013439;28;20014;-87
2023/08/26 04:31:15;;;;;;;33.63;23.90;;;18.40;99.90;;;;;;5018916;28;20452;-86
2023/08/26 04:33:41;;;;;;;34.58;22.48;;;18.40;99.90;;;;;;5020976;28;20018;-87
2023/08/26 04:36:06;;;;;;;32.45;21.73;;;18.40;99.90;;;;;;5022399;28;20026;-86
2023/08/26 04:38:32;;;;;;;30.95;21.70;;;18.40;99.90;;;;;;5021222;28;20014;-86
2023/08/26 04:40:58;;;;;;;33.33;22.40;;;18.40;99.90;;;;;;5020641;28;20049;-86
2023/08/26 04:43:25;;;;;;;33.85;22.40;;;18.30;99.90;;;;;;5010596;28;20026;-86
2023/08/26 04:45:52;;;;;;;32.40;19.65;;;18.30;99.90;;;;;;5016758;28;20053;-87
2023/08/26 04:48:18;;;;;;;29.33;20.23;;;18.30;99.90;;;;;;5019954;28;20076;-86
2023/08/26 04:50:44;;;;;;;27.20;18.52;;;18.40;99.90;;;;;;5017834;28;20496;-87
2023/08/26 04:53:09;;;;;;;27.13;18.42;;;18.40;99.90;;;;;;5015390;28;20026;-87
2023/08/26 04:55:36;;;;;;;28.80;18.40;;;18.40;99.90;;;;;;5014952;28;20532;-86
2023/08/26 04:58:02;;;;;;;26.23;17.48;;;18.40;99.90;;;;;;5019812;28;20075;-86
2023/08/26 05:00:28;;;;;;;24.27;17.83;;;18.40;99.90;;;;;;5013842;28;20037;-87
2023/08/26 05:02:54;;;;;;;25.17;16.88;;;18.40;99.90;;;;;;5020792;28;20033;-87
2023/08/26 05:05:19;;;;;;;23.65;16.63;;;18.40;99.90;;;;;;5024282;28;20026;-86
2023/08/26 05:07:45;;;;;;;24.27;17.13;;;18.40;99.90;;;;;;5020098;28;20021;-84
2023/08/26 05:10:10;;;;;;;23.27;16.75;;;18.40;99.90;;;;;;5020782;28;20099;-85
2023/08/26 05:12:36;;;;;;;19.75;14.88;;;18.40;99.90;;;;;;5018305;28;20048;-86
2023/08/26 05:15:04;;;;;;;21.02;15.93;;;18.40;99.90;;;;;;5019980;28;20373;-86
2023/08/26 05:17:29;;;;;;;21.00;15.55;;;18.40;99.90;;;;;;5018654;28;20033;-87
2023/08/26 05:19:55;;;;;;;20.95;15.35;;;18.40;99.90;;;;;;5015761;28;20088;-87
2023/08/26 05:22:21;;;;;;;22.83;15.77;;;18.50;99.90;;;;;;5017995;28;20029;-87
2023/08/26 05:24:47;;;;;;;19.92;15.50;;;18.50;99.90;;;;;;5017661;28;20014;-84
2023/08/26 05:27:14;;;;;;;19.33;15.38;;;18.50;99.90;;;;;;5014133;28;20033;-86
2023/08/26 05:29:40;;;;;;;23.88;15.48;;;18.40;99.90;;;;;;5015198;28;20573;-88
2023/08/26 05:32:06;;;;;;;23.13;14.98;;;18.40;99.90;;;;;;5021101;28;20078;-87
2023/08/26 05:34:32;;;;;;;22.60;15.57;;;18.50;99.90;;;;;;5020822;28;20022;-86
2023/08/26 05:36:57;;;;;;;20.92;14.27;;;18.50;99.90;;;;;;5023302;28;20013;-86
2023/08/26 05:39:23;;;;;;;22.23;15.60;;;18.50;99.90;;;;;;5021551;28;20028;-86
2023/08/26 05:41:49;;;;;;;23.00;16.15;;;18.50;99.90;;;;;;5018929;28;20109;-85
2023/08/26 05:44:14;;;;;;;20.52;14.52;;;18.50;99.90;;;;;;5018965;28;20104;-87
2023/08/26 05:46:40;;;;;;;21.35;15.13;;;18.60;99.90;;;;;;5022184;28;20022;-87
2023/08/26 05:49:05;;;;;;;21.15;15.52;;;18.50;99.90;;;;;;5011452;28;20030;-87
2023/08/26 05:51:31;;;;;;;19.85;14.05;;;18.50;99.90;;;;;;5016052;28;20030;-87
2023/08/26 05:53:56;;;;;;;21.50;15.68;;;18.50;99.90;;;;;;5010892;28;20076;-87
2023/08/26 05:56:22;;;;;;;21.38;15.77;;;18.50;99.90;;;;;;5009557;28;20076;-87
2023/08/26 05:58:48;;;;;;;22.13;14.85;;;18.50;99.90;;;;;;5007840;28;20022;-86
2023/08/26 06:01:13;;;;;;;18.50;14.57;;;18.50;99.90;;;;;;5019411;28;20128;-84
2023/08/26 06:03:39;;;;;;;19.15;14.82;;;18.60;99.90;;;;;;5018080;28;20033;-87
2023/08/26 06:06:05;;;;;;;21.77;15.70;;;18.50;99.90;;;;;;5029703;28;20032;-86
2023/08/26 06:08:31;;;;;;;19.30;13.63;;;18.60;99.90;;;;;;5026466;28;20369;-87
2023/08/26 06:10:57;;;;;;;20.70;14.38;;;18.60;99.90;;;;;;5024422;28;20025;-87
2023/08/26 06:13:23;;;;;;;22.95;15.00;;;18.70;99.90;;;;;;5026526;28;20468;-86
2023/08/26 06:15:55;;;;;;;20.25;13.93;;;18.70;99.90;;;;;;5025028;28;20018;-87
2023/08/26 06:18:21;;;;;;;19.80;14.75;;;18.70;99.90;;;;;;5031061;28;20498;-86
2023/08/26 06:20:50;;;;;;;19.38;15.27;;;18.70;99.90;;;;;;5032598;28;20145;-87
2023/08/26 06:23:15;;;;;;;17.75;14.45;;;18.70;99.90;;;;;;5020741;28;20026;-86
2023/08/26 06:25:52;;;;;;;19.92;13.52;;;18.60;99.90;;;;;;5017628;28;20028;-85
2023/08/26 06:28:18;;;;;;;15.52;12.85;;;18.60;99.90;;;;;;5018690;28;20033;-87
2023/08/26 06:30:43;;;;;;;17.50;13.30;;;18.60;99.90;;;;;;5017501;28;20018;-87
2023/08/26 06:33:09;;;;;;;15.27;12.10;;;18.60;99.90;;;;;;5015081;28;20021;-84
2023/08/26 06:35:35;;;;;;;15.25;12.20;;;18.60;99.90;;;;;;5023226;28;20094;-87
2023/08/26 06:38:00;;;;;;;17.88;12.50;;;18.50;99.90;;;;;;5015183;28;20084;-86
2023/08/26 06:40:26;;;;;;;15.63;12.15;;;18.50;99.90;;;;;;5014812;28;20076;-86
2023/08/26 06:42:51;;;;;;;13.18;10.65;;;18.40;99.90;;;;;;5020334;28;20018;-86
2023/08/26 06:45:17;;;;;;;13.95;10.52;;;18.40;99.90;;;;;;5018698;28;20036;-84
2023/08/26 06:47:43;;;;;;;14.57;10.52;;;18.40;99.90;;;;;;5027464;28;20026;-86
2023/08/26 06:50:08;;;;;;;13.52;11.80;;;18.40;99.90;;;;;;5028403;28;20022;-86
2023/08/26 06:52:34;;;;;;;12.02;10.32;;;18.40;99.90;;;;;;5032085;28;20064;-85
2023/08/26 06:55:00;;;;;;;13.63;11.13;;;18.50;99.90;;;;;;5032056;28;20053;-87
2023/08/26 06:57:25;;;;;;;13.90;10.80;;;18.50;99.90;;;;;;5014201;28;20026;-86
2023/08/26 06:59:51;;;;;;;16.88;10.77;;;18.60;99.90;;;;;;5014321;28;20169;-86
2023/08/26 07:02:16;;;;;;;13.20;11.52;;;18.70;99.90;;;;;;5027057;28;20038;-88
2023/08/26 07:04:44;;;;;;;10.82;9.60;;;18.80;99.90;;;;;;5014318;28;20627;-86
2023/08/26 07:07:11;;;;;;;15.35;9.27;;;18.90;99.90;;;;;;5012693;28;20025;-87
2023/08/26 07:09:37;;;;;;;10.93;8.80;;;19.00;99.90;;;;;;5019163;28;20152;-87
2023/08/26 07:12:03;;;;;;;12.27;7.45;;;19.10;99.90;;;;;;5011089;28;20053;-89
2023/08/26 07:14:29;;;;;;;10.30;7.57;;;19.10;99.90;;;;;;5011600;28;20416;-88
2023/08/26 07:16:55;;;;;;;8.43;7.22;;;19.10;99.90;;;;;;5015962;28;20013;-86
2023/08/26 07:19:20;;;;;;;8.15;7.30;;;19.00;99.90;;;;;;5022490;28;20030;-85
2023/08/26 07:21:46;;;;;;;9.43;6.57;;;19.00;99.90;;;;;;5017844;28;20034;-87
2023/08/26 07:24:12;;;;;;;8.48;7.13;;;18.90;99.90;;;;;;5023600;28;20116;-86
2023/08/26 07:26:37;;;;;;;8.68;6.28;;;18.80;99.90;;;;;;5019146;28;20032;-87
2023/08/26 07:29:03;;;;;;;6.40;5.10;;;18.80;99.90;;;;;;5010597;28;20060;-85
2023/08/26 07:31:28;;;;;;;7.45;5.43;;;18.90;99.90;;;;;;5017403;28;20030;-87
2023/08/26 07:33:55;;;;;;;7.60;5.22;;;19.00;99.90;;;;;;5020278;28;20071;-86
2023/08/26 07:36:20;;;;;;;7.70;5.15;;;19.10;99.90;;;;;;5022584;28;20384;-85
2023/08/26 07:38:47;;;;;;;6.68;5.97;;;19.20;99.90;;;;;;5012854;28;20017;-86
2023/08/26 07:41:12;;;;;;;8.57;6.78;;;19.20;99.90;;;;;;5025150;28;20129;-86
2023/08/26 07:43:38;;;;;;;6.88;6.18;;;19.20;99.90;;;;;;5019810;28;20049;-83
2023/08/26 07:46:04;;;;;;;7.72;6.00;;;19.30;99.90;;;;;;5014803;28;20477;-86
2023/08/26 07:48:30;;;;;;;7.15;6.20;;;19.40;99.90;;;;;;5013755;28;20026;-88
2023/08/26 07:50:55;;;;;;;6.82;5.38;;;19.50;99.90;;;;;;5018155;28;20018;-86
2023/08/26 07:53:21;;;;;;;6.85;5.55;;;19.70;99.90;;;;;;5020512;28;20041;-86
2023/08/26 07:55:46;;;;;;;7.32;4.88;;;19.80;99.90;;;;;;5014134;28;20475;-86
2023/08/26 07:58:12;;;;;;;7.28;4.97;;;19.90;99.90;;;;;;5014709;28;20595;-86
2023/08/26 08:00:38;;;;;;;4.97;4.57;;;20.00;99.90;;;;;;5011161;28;20065;-83
2023/08/26 08:03:04;;;;;;;5.03;3.97;;;20.20;99.90;;;;;;5009965;28;20032;-85
2023/08/26 08:05:29;;;;;;;5.13;3.92;;;20.20;99.90;;;;;;5020337;28;20053;-85
2023/08/26 08:07:55;;;;;;;3.83;3.53;;;20.30;99.90;;;;;;5021112;28;20033;-86
2023/08/26 08:10:20;;;;;;;9.10;4.30;;;20.30;99.90;;;;;;5013215;28;20442;-85
2023/08/26 08:12:46;;;;;;;5.60;3.25;;;20.10;99.90;;;;;;5017395;28;20437;-87
2023/08/26 08:15:11;;;;;;;6.28;3.83;;;20.10;99.90;;;;;;5027991;28;20026;-86
2023/08/26 08:17:37;;;;;;;3.90;3.03;;;20.00;99.90;;;;;;5012684;28;20030;-83
2023/08/26 08:20:03;;;;;;;3.65;3.05;;;19.80;99.90;;;;;;5020121;28;20056;-86
2023/08/26 08:22:36;;;;;;;3.70;3.00;;;20.00;99.90;;;;;;5024867;28;20018;-83
2023/08/26 08:25:03;;;;;;;4.32;3.05;;;20.10;99.90;;;;;;5016873;28;20113;-86
2023/08/26 08:27:30;;;;;;;4.65;3.35;;;20.00;99.90;;;;;;5010902;28;20037;-87
2023/08/26 08:29:57;;;;;;;7.05;3.28;;;20.10;99.90;;;;;;5012273;28;20018;-87
2023/08/26 08:32:22;;;;;;;6.45;4.10;;;20.20;99.90;;;;;;5015534;28;20040;-84
2023/08/26 08:34:48;;;;;;;3.25;2.85;;;20.10;99.90;;;;;;5016519;28;20021;-84
2023/08/26 08:37:13;;;;;;;4.15;2.65;;;20.20;99.90;;;;;;5016859;28;20022;-86
2023/08/26 08:39:39;;;;;;;3.85;2.97;;;20.10;99.90;;;;;;5019534;28;20512;-84
2023/08/26 08:42:06;;;;;;;3.42;3.13;;;20.10;99.90;;;;;;5020146;28;20528;-83
2023/08/26 08:44:34;;;;;;;6.13;3.08;;;20.00;99.90;;;;;;5026586;28;20045;-85
2023/08/26 08:47:04;;;;;;;8.75;3.08;;;19.90;99.90;;;;;;5021707;28;20021;-84
2023/08/26 08:49:30;;;;;;;3.03;2.75;;;19.80;99.90;;;;;;5028032;28;20029;-85
2023/08/26 08:51:57;;;;;;;3.30;2.55;;;19.80;99.90;;;;;;5019077;28;20026;-85
2023/08/26 08:54:25;;;;;;;2.67;2.38;;;19.70;99.90;;;;;;5019439;28;20298;-85
2023/08/26 08:56:52;;;;;;;2.88;2.22;;;19.60;99.90;;;;;;5017061;28;20021;-85
2023/08/26 08:59:20;;;;;;;3.75;2.53;;;19.60;99.90;;;;;;5020184;28;20053;-85
2023/08/26 09:01:46;;;;;;;4.57;2.75;;;19.50;99.90;;;;;;5024472;28;20101;-84
2023/08/26 09:04:11;;;;;;;2.83;2.22;;;19.60;99.90;;;;;;5022766;28;20061;-86
2023/08/26 09:06:38;;;;;;;3.00;1.80;;;19.50;99.90;;;;;;5028277;28;20022;-86
2023/08/26 09:09:10;;;;;;;4.22;2.80;;;19.60;99.90;;;;;;5022869;28;20026;-85
2023/08/26 09:11:37;;;;;;;2.92;2.33;;;19.60;99.90;;;;;;5020392;28;20030;-86
2023/08/26 09:14:04;;;;;;;3.47;2.10;;;19.60;99.90;;;;;;5022763;28;20025;-87
2023/08/26 09:16:38;;;;;;;4.18;2.92;;;19.60;99.90;;;;;;5021289;28;20030;-85
2023/08/26 09:19:22;;;;;;;5.40;2.40;;;19.70;99.90;;;;;;5024377;28;20595;-84
2023/08/26 09:21:48;;;;;;;3.95;2.53;;;19.80;99.90;;;;;;5018323;28;20028;-84
2023/08/26 09:24:15;;;;;;;4.82;2.38;;;19.70;99.90;;;;;;5014437;28;20022;-84
2023/08/26 09:26:43;;;;;;;2.33;1.90;;;19.70;99.90;;;;;;5022677;28;20028;-84
2023/08/26 09:29:19;;;;;;;3.25;1.70;;;19.60;99.90;;;;;;5019344;28;20026;-84
2023/08/26 09:31:45;;;;;;;2.17;1.75;;;19.60;99.90;;;;;;5012439;28;20147;-86
2023/08/26 09:34:11;;;;;;;2.25;2.00;;;19.50;99.90;;;;;;5022360;28;20033;-85
2023/08/26 09:36:40;;;;;;;2.63;2.38;;;19.50;99.90;;;;;;5012765;28;20029;-85
2023/08/26 09:39:13;;;;;;;2.75;2.08;;;19.60;99.90;;;;;;5030019;28;20018;-86
2023/08/26 09:41:41;;;;;;;2.03;1.73;;;19.60;99.90;;;;;;5029471;28;20017;-86
2023/08/26 09:44:09;;;;;;;3.28;1.73;;;19.60;99.90;;;;;;5032078;28;20435;-86
2023/08/26 09:46:36;;;;;;;2.03;1.50;;;19.60;99.90;;;;;;5017778;28;20175;-85
2023/08/26 09:49:02;;;;;;;6.03;2.22;;;19.70;99.90;;;;;;5007569;28;20156;-85
2023/08/26 09:51:32;;;;;;;1.63;1.33;;;19.80;99.90;;;;;;5020704;28;20029;-84
2023/08/26 09:53:59;;;;;;;2.38;1.33;;;19.80;99.90;;;;;;5005292;28;20045;-85
2023/08/26 09:56:26;;;;;;;1.85;1.50;;;19.90;99.90;;;;;;5014365;28;20025;-86
2023/08/26 09:58:53;;;;;;;2.38;1.33;;;19.90;99.90;;;;;;5019260;28;20033;-85
2023/08/26 10:01:23;;;;;;;2.25;1.55;;;20.00;99.90;;;;;;5021097;28;20109;-87
2023/08/26 10:04:08;;;;;;;1.40;1.30;;;20.00;99.90;;;;;;5013959;28;20115;-86
2023/08/26 10:06:44;;;;;;;2.77;1.23;;;19.90;99.90;;;;;;5024514;28;20029;-86
2023/08/26 10:09:45;;;;;;;1.40;1.30;;;20.00;99.90;;;;;;5017499;28;20025;-87
2023/08/26 10:12:21;;;;;;;1.40;1.30;;;20.00;99.90;;;;;;5013411;28;20034;-86
2023/08/26 10:14:50;;;;;;;2.72;1.40;;;20.00;99.90;;;;;;5013073;28;20485;-86
2023/08/26 10:17:19;;;;;;;1.42;1.33;;;20.00;99.90;;;;;;5017199;28;20056;-86
2023/08/26 10:19:47;;;;;;;2.92;1.30;;;20.10;99.90;;;;;;5025643;28;20504;-89
2023/08/26 10:22:13;;;;;;;4.75;1.58;;;20.10;99.90;;;;;;5015238;28;20237;-85
2023/08/26 10:24:39;;;;;;;3.08;1.55;;;20.20;99.90;;;;;;5018135;28;20121;-87
2023/08/26 10:27:08;;;;;;;2.40;1.13;;;20.20;99.90;;;;;;5015030;28;20065;-87
2023/08/26 10:29:39;;;;;;;1.48;0.90;;;20.30;99.90;;;;;;5019505;28;20484;-85
2023/08/26 10:32:22;;;;;;;1.38;0.80;;;20.20;99.90;;;;;;5009287;28;20048;-86
2023/08/26 10:34:56;;;;;;;1.83;0.75;;;20.20;99.90;;;;;;5021521;28;20511;-83
2023/08/26 10:37:25;;;;;;;0.93;0.90;;;20.10;99.90;;;;;;5025364;28;20029;-85
2023/08/26 10:39:51;;;;;;;1.65;0.60;;;20.10;99.90;;;;;;5016537;28;20026;-86
2023/08/26 10:42:18;;;;;;;2.50;0.75;;;20.10;99.90;;;;;;5012966;28;20120;-85
2023/08/26 10:44:53;;;;;;;0.82;0.75;;;20.10;99.90;;;;;;5025022;28;20076;-84
2023/08/26 10:47:44;;;;;;;0.95;0.65;;;20.10;99.90;;;;;;5016849;28;20040;-86
2023/08/26 10:50:25;;;;;;;0.82;0.63;;;20.20;99.90;;;;;;5013672;28;20076;-87
2023/08/26 10:53:20;;;;;;;1.25;0.85;;;20.20;99.90;;;;;;5015026;28;20028;-84
2023/08/26 10:55:50;;;;;;;1.40;0.80;;;20.30;99.90;;;;;;5016119;28;20472;-82
2023/08/26 10:58:21;;;;;;;1.48;0.70;;;20.30;99.90;;;;;;5020593;28;20014;-85
2023/08/26 11:00:51;;;;;;;2.10;0.95;;;20.30;99.90;;;;;;5021508;28;20133;-86
2023/08/26 11:03:22;;;;;;;1.05;0.95;;;20.30;99.90;;;;;;5026870;28;20022;-86
2023/08/26 11:06:01;;;;;;;1.88;0.93;;;20.30;99.90;;;;;;5018417;28;20025;-84
2023/08/26 11:08:27;;;;;;;0.90;0.70;;;20.40;99.90;;;;;;5018639;28;20030;-84
2023/08/26 11:10:52;;;;;;;1.13;0.70;;;20.40;99.90;;;;;;5021199;28;20068;-85
2023/08/26 11:13:21;;;;;;;1.63;0.93;;;20.60;99.90;;;;;;5017654;28;20033;-87
2023/08/26 11:15:46;;;;;;;3.03;0.85;;;20.60;99.90;;;;;;5015003;28;20014;-86
2023/08/26 11:18:12;;;;;;;1.67;1.25;;;20.70;99.90;;;;;;5024686;28;20121;-86
2023/08/26 11:20:38;;;;;;;3.42;1.27;;;20.60;99.90;;;;;;5026496;28;20098;-86
2023/08/26 11:23:05;;;;;;;3.13;0.80;;;20.70;99.90;;;;;;5017510;28;20025;-86
2023/08/26 11:25:33;;;;;;;1.10;1.00;;;20.70;99.90;;;;;;5021590;28;20032;-87
2023/08/26 11:28:07;;;;;;;1.67;1.10;;;20.70;99.90;;;;;;5012740;28;20026;-86
2023/08/26 11:30:51;;;;;;;3.42;1.10;;;20.60;99.90;;;;;;5021378;28;20092;-84
2023/08/26 11:33:17;;;;;;;3.03;1.10;;;20.60;99.90;;;;;;5028378;28;20032;-88
2023/08/26 11:35:45;;;;;;;3.63;1.05;;;20.60;99.90;;;;;;5006094;28;20034;-85
2023/08/26 11:38:12;;;;;;;2.20;1.30;;;20.50;99.90;;;;;;5010421;28;20205;-84
2023/08/26 11:40:37;;;;;;;6.38;1.17;;;20.50;99.90;;;;;;5019506;28;20034;-85
2023/08/26 11:43:08;;;;;;;1.35;0.88;;;20.40;99.90;;;;;;5017193;28;20400;-87
2023/08/26 11:45:38;;;;;;;1.60;1.08;;;20.50;99.90;;;;;;5020673;28;20089;-84
2023/08/26 11:48:04;;;;;;;1.30;0.60;;;20.60;99.90;;;;;;5023409;28;20017;-83
2023/08/26 11:50:31;;;;;;;3.55;1.08;;;20.70;99.90;;;;;;5018443;28;20034;-86
2023/08/26 11:53:00;;;;;;;1.83;1.10;;;20.60;99.90;;;;;;5021120;28;20029;-86
2023/08/26 11:55:28;;;;;;;2.00;1.23;;;20.60;99.90;;;;;;5013874;28;20033;-85
2023/08/26 11:57:54;;;;;;;3.03;1.05;;;20.60;99.90;;;;;;5022837;28;20029;-86
2023/08/26 12:00:19;;;;;;;2.10;1.20;;;20.70;99.90;;;;;;5015895;28;20248;-85
2023/08/26 12:02:46;;;;;;;2.60;1.17;;;20.80;99.90;;;;;;5016306;28;20088;-85
2023/08/26 12:05:14;;;;;;;3.72;1.23;;;20.90;99.90;;;;;;5028209;28;20723;-87
2023/08/26 12:07:45;;;;;;;1.23;1.02;;;21.10;99.90;;;;;;5018657;28;20409;-84
2023/08/26 12:10:13;;;;;;;1.92;1.20;;;21.10;99.90;;;;;;5003415;28;20053;-85
2023/08/26 12:12:39;;;;;;;2.33;0.80;;;21.00;99.90;;;;;;5018364;28;20056;-84
2023/08/26 12:15:07;;;;;;;0.80;0.80;;;21.00;99.90;;;;;;5022900;28;20401;-85
2023/08/26 12:17:45;;;;;;;0.63;0.63;;;20.90;99.90;;;;;;5015112;28;20034;-86
2023/08/26 12:20:23;;;;;;;1.63;0.90;;;21.00;99.90;;;;;;5026514;28;20409;-86
2023/08/26 12:22:50;;;;;;;1.30;1.00;;;20.90;99.90;;;;;;5021901;28;20022;-88
2023/08/26 12:25:17;;;;;;;0.60;0.60;;;21.00;99.90;;;;;;5020367;28;20048;-83
2023/08/26 12:27:42;;;;;;;2.83;1.15;;;21.00;99.90;;;;;;5022201;28;20112;-86
2023/08/26 12:30:08;;;;;;;2.85;1.02;;;21.00;99.90;;;;;;5018289;28;20049;-89
2023/08/26 12:32:35;;;;;;;1.05;0.82;;;20.90;99.90;;;;;;5019360;28;20029;-87
2023/08/26 12:35:01;;;;;;;0.80;0.80;;;20.90;99.90;;;;;;5015848;28;20527;-85